Hauptseite
METAR-TAF:

METAR-TAF

Flughäfen :

Monte Cimone, Italien

Breite: 44-12N, Länge: 010-42E, Höhe: 2165 m

Beobachtung

Neuester Wetterbericht von vor 28 Minuten, um 10:55 UTC
Wind 7 kt aus unterschiedlichen Richtungen, Böen bis zu 23 kt
Temperatur 1°C
Luftfeuchtigkeit 86%
Luftdruck 1019 hPa
Sichtweite: 3000 m
Durchbrochene Bewölkung in der Höhe weniger als 100 ft
feuchter Dunst

METAR: LIVC 231055Z VRB07G23KT 3000 BR BKN000 01/M01 Q1019 RMK BKN MON INVIS VAL INVIS VIS MIN 1500SW

Zeit: 12:23 (11:23 UTC)


TAF: fehlend

Wetterbeobachtungen und Prognosen von mehr als 4000 Flughäfen (METAR und TAF Bericht).

Die verfügbaren Stationen werden durch gelbe und rote Markierungen auf der Karte dargestellt.

Führen Sie die Maus auf sie, um den Namen der Station zu sehen.

Darauf klicken, um die Beobachtung von Wetterbeobachtungen und Prognosen zu sehen.

Um die Karte zu ändern : klicken Sie auf den grünen Tasten mit einem schwarzen Kreuz Zum Vergrößern, auf den grünen Button mit einem Gedankenstrich zu verkleinern, oder auf die grünen Pfeile für benachbarte Karten.


METAR-TAF: